TGW883 WSSS-RPVM
Flight info
| Callsign | TGW883 |
|---|---|
| Flight time | N/A |
| Altitude | 37000 |
| Route | TOMAN5B TOMAN M646 BRU W461 VSN A341 ZAM G578 ALDIN ALDIN3P |
| Aircraft | E190/M-SDE3GILORVW/S |
Departure
| Time | 2026-05-05 07:56 |
|---|---|
| Airport | Singapore Changi Airport (WSSS) |
Arrival
| Time | N/A |
|---|---|
| Airport | Mactan Cebu International Airport (RPVM) |
| Time | Latitude | Longitude | Altitude | Speed | Heading |
|---|---|---|---|---|---|
| 2026-05-05 07:29 | 1.36612 | 103.99043 | 31 ft | 0 kts | 265° |
| 2026-05-05 07:44 | 1.36613 | 103.99048 | 31 ft | 2 kts | 265° |
| 2026-05-05 07:44 | 1.36614 | 103.99062 | 31 ft | 2 kts | 264° |
| 2026-05-05 07:44 | 1.36614 | 103.99077 | 31 ft | 2 kts | 278° |
| 2026-05-05 07:45 | 1.36611 | 103.99091 | 31 ft | 2 kts | 290° |
| 2026-05-05 07:45 | 1.36604 | 103.99105 | 31 ft | 2 kts | 302° |
| 2026-05-05 07:45 | 1.36596 | 103.99116 | 31 ft | 2 kts | 314° |
| 2026-05-05 07:45 | 1.36584 | 103.99126 | 31 ft | 2 kts | 327° |
| 2026-05-05 07:46 | 1.36571 | 103.99133 | 31 ft | 2 kts | 339° |
| 2026-05-05 07:46 | 1.36556 | 103.99137 | 31 ft | 1 kts | 352° |
| 2026-05-05 07:46 | 1.36550 | 103.99138 | 31 ft | 1 kts | 355° |
| 2026-05-05 07:46 | 1.36549 | 103.99138 | 31 ft | 0 kts | 355° |
| 2026-05-05 07:49 | 1.36555 | 103.99137 | 31 ft | 2 kts | 354° |
| 2026-05-05 07:50 | 1.36590 | 103.99134 | 31 ft | 7 kts | 354° |
| 2026-05-05 07:50 | 1.36654 | 103.99136 | 29 ft | 12 kts | 24° |
| 2026-05-05 07:50 | 1.36668 | 103.99204 | 28 ft | 11 kts | 113° |
| 2026-05-05 07:50 | 1.36638 | 103.99271 | 31 ft | 12 kts | 114° |
| 2026-05-05 07:51 | 1.36604 | 103.99348 | 34 ft | 13 kts | 114° |
| 2026-05-05 07:51 | 1.36565 | 103.99439 | 34 ft | 15 kts | 113° |
| 2026-05-05 07:51 | 1.36522 | 103.99540 | 32 ft | 17 kts | 112° |
| 2026-05-05 07:51 | 1.36470 | 103.99661 | 28 ft | 19 kts | 114° |
| 2026-05-05 07:52 | 1.36417 | 103.99786 | 25 ft | 17 kts | 111° |
| 2026-05-05 07:52 | 1.36391 | 103.99844 | 27 ft | 0 kts | 120° |
| 2026-05-05 07:54 | 1.36385 | 103.99852 | 27 ft | 3 kts | 132° |
| 2026-05-05 07:54 | 1.36349 | 103.99870 | 27 ft | 8 kts | 161° |
| 2026-05-05 07:54 | 1.36279 | 103.99886 | 28 ft | 12 kts | 170° |
| 2026-05-05 07:55 | 1.36178 | 103.99892 | 27 ft | 16 kts | 193° |
| 2026-05-05 07:55 | 1.36147 | 103.99881 | 28 ft | 0 kts | 201° |
| 2026-05-05 07:55 | 1.36126 | 103.99873 | 27 ft | 16 kts | 201° |
| 2026-05-05 07:55 | 1.35784 | 103.99729 | 31 ft | 86 kts | 202° |
| 2026-05-05 07:56 | 1.35031 | 103.99412 | 31 ft | 143 kts | 202° |
| 2026-05-05 07:56 | 1.33985 | 103.98976 | 170 ft | 172 kts | 202° |
| 2026-05-05 07:56 | 1.32900 | 103.98495 | 710 ft | 177 kts | 206° |
| 2026-05-05 07:56 | 1.31701 | 103.97862 | 820 ft | 210 kts | 206° |
| 2026-05-05 07:57 | 1.30312 | 103.97211 | 1194 ft | 226 kts | 205° |
| 2026-05-05 07:57 | 1.28909 | 103.96555 | 1527 ft | 220 kts | 205° |
| 2026-05-05 07:57 | 1.27595 | 103.95942 | 1726 ft | 196 kts | 205° |
| 2026-05-05 07:57 | 1.26413 | 103.95363 | 1806 ft | 184 kts | 211° |
| 2026-05-05 07:58 | 1.25216 | 103.94950 | 2068 ft | 184 kts | 174° |
| 2026-05-05 07:58 | 1.24071 | 103.95394 | 2412 ft | 186 kts | 137° |
| 2026-05-05 07:58 | 1.23192 | 103.96338 | 2754 ft | 189 kts | 142° |
| 2026-05-05 07:58 | 1.22079 | 103.97062 | 3060 ft | 190 kts | 139° |
| 2026-05-05 07:59 | 1.21041 | 103.97971 | 3604 ft | 204 kts | 142° |
| 2026-05-05 07:59 | 1.19941 | 103.98806 | 4480 ft | 202 kts | 138° |
| 2026-05-05 07:59 | 1.18855 | 103.99667 | 5375 ft | 197 kts | 148° |
| 2026-05-05 07:59 | 1.17676 | 104.00343 | 6168 ft | 196 kts | 154° |
| 2026-05-05 08:00 | 1.16457 | 104.00903 | 6885 ft | 198 kts | 158° |
| 2026-05-05 08:00 | 1.15173 | 104.01425 | 7572 ft | 196 kts | 152° |
| 2026-05-05 08:00 | 1.14376 | 104.02430 | 7927 ft | 205 kts | 101° |
| 2026-05-05 08:00 | 1.14186 | 104.03835 | 8523 ft | 201 kts | 90° |
| 2026-05-05 08:01 | 1.14275 | 104.05212 | 9085 ft | 199 kts | 78° |
| 2026-05-05 08:01 | 1.14396 | 104.05806 | 9203 ft | 206 kts | 75° |
| 2026-05-05 08:01 | 1.14456 | 104.06041 | 9223 ft | 210 kts | 73° |
| 2026-05-05 08:02 | 1.14946 | 104.07472 | 9415 ft | 227 kts | 73° |
| 2026-05-05 08:02 | 1.15366 | 104.08921 | 10296 ft | 206 kts | 79° |
| 2026-05-05 08:02 | 1.15629 | 104.10291 | 10772 ft | 208 kts | 75° |